sensor_id;sensor_type;location;lat;lon;timestamp;pressure;altitude;pressure_sealevel;temperature;humidity
69842;BME280;57138;51.326;-0.068;2023-03-21T00:00:45;99556.47;;;8.59;100.00
69842;BME280;57138;51.326;-0.068;2023-03-21T00:03:12;99556.66;;;8.57;100.00
69842;BME280;57138;51.326;-0.068;2023-03-21T00:05:42;99548.28;;;8.60;100.00
69842;BME280;57138;51.326;-0.068;2023-03-21T00:08:14;99549.31;;;8.59;100.00
69842;BME280;57138;51.326;-0.068;2023-03-21T00:10:40;99533.06;;;8.54;100.00
69842;BME280;57138;51.326;-0.068;2023-03-21T00:13:05;99530.22;;;8.56;100.00
69842;BME280;57138;51.326;-0.068;2023-03-21T00:15:30;99521.13;;;8.50;100.00
69842;BME280;57138;51.326;-0.068;2023-03-21T00:17:56;99513.53;;;8.47;100.00
69842;BME280;57138;51.326;-0.068;2023-03-21T00:20:32;99526.09;;;8.53;100.00
69842;BME280;57138;51.326;-0.068;2023-03-21T00:23:02;99523.19;;;8.48;100.00
69842;BME280;57138;51.326;-0.068;2023-03-21T00:25:28;99519.69;;;8.48;100.00
69842;BME280;57138;51.326;-0.068;2023-03-21T00:27:53;99510.06;;;8.47;100.00
69842;BME280;57138;51.326;-0.068;2023-03-21T00:30:18;99507.94;;;8.42;100.00
69842;BME280;57138;51.326;-0.068;2023-03-21T00:32:45;99517.84;;;8.48;100.00
69842;BME280;57138;51.326;-0.068;2023-03-21T00:35:11;99508.94;;;8.41;100.00
69842;BME280;57138;51.326;-0.068;2023-03-21T00:37:36;99513.53;;;8.47;100.00
69842;BME280;57138;51.326;-0.068;2023-03-21T00:40:02;99518.66;;;8.49;100.00
69842;BME280;57138;51.326;-0.068;2023-03-21T00:42:33;99508.00;;;8.49;100.00
69842;BME280;57138;51.326;-0.068;2023-03-21T00:44:59;99497.75;;;8.45;100.00
69842;BME280;57138;51.326;-0.068;2023-03-21T00:47:24;99501.22;;;8.46;100.00
69842;BME280;57138;51.326;-0.068;2023-03-21T00:49:49;99497.94;;;8.44;100.00
69842;BME280;57138;51.326;-0.068;2023-03-21T00:52:15;99491.94;;;8.42;100.00
69842;BME280;57138;51.326;-0.068;2023-03-21T00:54:40;99493.56;;;8.43;100.00
69842;BME280;57138;51.326;-0.068;2023-03-21T00:57:05;99491.94;;;8.42;100.00
69842;BME280;57138;51.326;-0.068;2023-03-21T00:59:31;99488.25;;;8.43;100.00
69842;BME280;57138;51.326;-0.068;2023-03-21T01:01:56;99487.91;;;8.46;100.00
69842;BME280;57138;51.326;-0.068;2023-03-21T01:04:24;99482.09;;;8.42;100.00
69842;BME280;57138;51.326;-0.068;2023-03-21T01:06:50;99480.25;;;8.43;100.00
69842;BME280;57138;51.326;-0.068;2023-03-21T01:09:19;99468.97;;;8.41;100.00
69842;BME280;57138;51.326;-0.068;2023-03-21T01:11:45;99468.63;;;8.44;100.00
69842;BME280;57138;51.326;-0.068;2023-03-21T01:14:12;99461.59;;;8.43;100.00
69842;BME280;57138;51.326;-0.068;2023-03-21T01:16:38;99454.66;;;8.42;100.00
69842;BME280;57138;51.326;-0.068;2023-03-21T01:19:04;99465.31;;;8.42;100.00
69842;BME280;57138;51.326;-0.068;2023-03-21T01:21:30;99456.03;;;8.38;100.00
69842;BME280;57138;51.326;-0.068;2023-03-21T01:23:56;99454.66;;;8.42;100.00
69842;BME280;57138;51.326;-0.068;2023-03-21T01:26:22;99453.00;;;8.41;100.00
69842;BME280;57138;51.326;-0.068;2023-03-21T01:28:48;99437.59;;;8.36;100.00
69842;BME280;57138;51.326;-0.068;2023-03-21T01:31:15;99432.06;;;8.38;100.00
69842;BME280;57138;51.326;-0.068;2023-03-21T01:33:42;99436.00;;;8.42;100.00
69842;BME280;57138;51.326;-0.068;2023-03-21T01:36:18;99441.72;;;8.39;100.00
69842;BME280;57138;51.326;-0.068;2023-03-21T01:38:46;99436.41;;;8.39;100.00
69842;BME280;57138;51.326;-0.068;2023-03-21T01:41:36;99429.22;;;8.39;100.00
69842;BME280;57138;51.326;-0.068;2023-03-21T01:44:03;99416.47;;;8.35;100.00
69842;BME280;57138;51.326;-0.068;2023-03-21T01:46:43;99429.88;;;8.41;100.00
69842;BME280;57138;51.326;-0.068;2023-03-21T01:49:19;99424.72;;;8.40;100.00
69842;BME280;57138;51.326;-0.068;2023-03-21T01:51:52;99427.41;;;8.40;100.00
69842;BME280;57138;51.326;-0.068;2023-03-21T01:54:24;99418.94;;;8.36;100.00
69842;BME280;57138;51.326;-0.068;2023-03-21T01:56:54;99421.03;;;8.41;100.00
69842;BME280;57138;51.326;-0.068;2023-03-21T01:59:45;99419.41;;;8.40;100.00
69842;BME280;57138;51.326;-0.068;2023-03-21T02:02:17;99417.38;;;8.42;100.00
69842;BME280;57138;51.326;-0.068;2023-03-21T02:04:45;99409.56;;;8.40;100.00
69842;BME280;57138;51.326;-0.068;2023-03-21T02:07:17;99405.25;;;8.39;100.00
69842;BME280;57138;51.326;-0.068;2023-03-21T02:09:49;99399.72;;;8.41;100.00
69842;BME280;57138;51.326;-0.068;2023-03-21T02:12:15;99392.34;;;8.43;100.00
69842;BME280;57138;51.326;-0.068;2023-03-21T02:14:42;99382.94;;;8.40;100.00
69842;BME280;57138;51.326;-0.068;2023-03-21T02:31:12;99373.00;;;8.27;100.00
69842;BME280;57138;51.326;-0.068;2023-03-21T02:47:02;99362.69;;;8.18;100.00
69842;BME280;57138;51.326;-0.068;2023-03-21T02:50:07;99364.34;;;8.19;100.00
69842;BME280;57138;51.326;-0.068;2023-03-21T02:52:38;99357.34;;;8.18;100.00
69842;BME280;57138;51.326;-0.068;2023-03-21T02:55:10;99349.38;;;8.18;100.00
69842;BME280;57138;51.326;-0.068;2023-03-21T02:57:40;99357.81;;;8.21;100.00
69842;BME280;57138;51.326;-0.068;2023-03-21T03:00:09;99352.88;;;8.18;100.00
69842;BME280;57138;51.326;-0.068;2023-03-21T03:02:37;99361.88;;;8.17;100.00
69842;BME280;57138;51.326;-0.068;2023-03-21T03:05:28;99371.06;;;8.15;100.00
69842;BME280;57138;51.326;-0.068;2023-03-21T03:08:17;99359.78;;;8.13;100.00
69842;BME280;57138;51.326;-0.068;2023-03-21T03:16:10;99357.50;;;8.09;100.00
69842;BME280;57138;51.326;-0.068;2023-03-21T03:24:10;99357.28;;;8.04;100.00
69842;BME280;57138;51.326;-0.068;2023-03-21T03:26:44;99349.47;;;8.03;100.00
69842;BME280;57138;51.326;-0.068;2023-03-21T03:29:16;99341.69;;;8.01;100.00
69842;BME280;57138;51.326;-0.068;2023-03-21T03:31:48;99350.69;;;8.00;100.00
69842;BME280;57138;51.326;-0.068;2023-03-21T03:34:19;99351.06;;;7.97;100.00
69842;BME280;57138;51.326;-0.068;2023-03-21T03:36:48;99337.53;;;7.92;100.00
69842;BME280;57138;51.326;-0.068;2023-03-21T03:39:22;99344.47;;;7.93;100.00
69842;BME280;57138;51.326;-0.068;2023-03-21T03:41:54;99333.00;;;7.92;100.00
69842;BME280;57138;51.326;-0.068;2023-03-21T03:44:22;99310.06;;;7.91;100.00
69842;BME280;57138;51.326;-0.068;2023-03-21T03:47:05;99309.06;;;7.92;100.00
69842;BME280;57138;51.326;-0.068;2023-03-21T03:49:36;99308.25;;;7.92;100.00
69842;BME280;57138;51.326;-0.068;2023-03-21T03:52:11;99306.78;;;7.89;100.00
69842;BME280;57138;51.326;-0.068;2023-03-21T03:54:43;99293.84;;;7.86;100.00
69842;BME280;57138;51.326;-0.068;2023-03-21T03:57:10;99300.41;;;7.84;100.00
69842;BME280;57138;51.326;-0.068;2023-03-21T03:59:40;99294.03;;;7.85;100.00
69842;BME280;57138;51.326;-0.068;2023-03-21T04:02:06;99289.97;;;7.82;100.00
69842;BME280;57138;51.326;-0.068;2023-03-21T04:04:32;99297.56;;;7.85;100.00
69842;BME280;57138;51.326;-0.068;2023-03-21T04:06:58;99268.66;;;7.82;100.00
69842;BME280;57138;51.326;-0.068;2023-03-21T04:09:25;99280.50;;;7.80;100.00
69842;BME280;57138;51.326;-0.068;2023-03-21T04:11:53;99273.91;;;7.76;100.00
69842;BME280;57138;51.326;-0.068;2023-03-21T04:14:18;99263.84;;;7.71;100.00
69842;BME280;57138;51.326;-0.068;2023-03-21T04:16:43;99273.50;;;7.72;100.00
69842;BME280;57138;51.326;-0.068;2023-03-21T04:19:09;99276.16;;;7.72;100.00
69842;BME280;57138;51.326;-0.068;2023-03-21T04:21:34;99259.38;;;7.71;100.00
69842;BME280;57138;51.326;-0.068;2023-03-21T04:24:00;99259.56;;;7.70;100.00
69842;BME280;57138;51.326;-0.068;2023-03-21T04:26:26;99259.94;;;7.67;100.00
69842;BME280;57138;51.326;-0.068;2023-03-21T04:28:57;99255.03;;;7.64;100.00
69842;BME280;57138;51.326;-0.068;2023-03-21T04:31:25;99274.66;;;7.63;100.00
69842;BME280;57138;51.326;-0.068;2023-03-21T04:33:52;99262.16;;;7.63;100.00
69842;BME280;57138;51.326;-0.068;2023-03-21T04:36:20;99266.47;;;7.64;100.00
69842;BME280;57138;51.326;-0.068;2023-03-21T04:38:55;99254.13;;;7.56;100.00
69842;BME280;57138;51.326;-0.068;2023-03-21T04:41:27;99255.13;;;7.55;100.00
69842;BME280;57138;51.326;-0.068;2023-03-21T04:43:53;99259.44;;;7.56;100.00
69842;BME280;57138;51.326;-0.068;2023-03-21T04:46:19;99257.75;;;7.49;100.00
69842;BME280;57138;51.326;-0.068;2023-03-21T04:48:44;99266.75;;;7.48;100.00
69842;BME280;57138;51.326;-0.068;2023-03-21T04:51:11;99265.13;;;7.47;100.00
69842;BME280;57138;51.326;-0.068;2023-03-21T04:53:36;99267.97;;;7.45;100.00
69842;BME280;57138;51.326;-0.068;2023-03-21T04:56:02;99278.22;;;7.48;100.00
69842;BME280;57138;51.326;-0.068;2023-03-21T04:58:28;99271.25;;;7.47;100.00
69842;BME280;57138;51.326;-0.068;2023-03-21T05:00:54;99263.88;;;7.49;100.00
69842;BME280;57138;51.326;-0.068;2023-03-21T05:03:21;99267.78;;;7.47;100.00
69842;BME280;57138;51.326;-0.068;2023-03-21T05:05:48;99242.75;;;7.41;100.00
69842;BME280;57138;51.326;-0.068;2023-03-21T05:08:14;99252.63;;;7.47;100.00
69842;BME280;57138;51.326;-0.068;2023-03-21T05:10:40;99266.31;;;7.44;100.00
69842;BME280;57138;51.326;-0.068;2023-03-21T05:13:06;99271.25;;;7.47;100.00
69842;BME280;57138;51.326;-0.068;2023-03-21T05:15:31;99253.19;;;7.43;100.00
69842;BME280;57138;51.326;-0.068;2023-03-21T05:17:57;99256.47;;;7.45;100.00
69842;BME280;57138;51.326;-0.068;2023-03-21T05:20:25;99250.34;;;7.44;100.00
69842;BME280;57138;51.326;-0.068;2023-03-21T05:22:50;99245.03;;;7.44;100.00
69842;BME280;57138;51.326;-0.068;2023-03-21T05:25:16;99227.03;;;7.46;100.00
69842;BME280;57138;51.326;-0.068;2023-03-21T05:27:45;99239.31;;;7.47;100.00
69842;BME280;57138;51.326;-0.068;2023-03-21T05:30:18;99238.50;;;7.47;100.00
69842;BME280;57138;51.326;-0.068;2023-03-21T05:32:44;99228.69;;;7.47;100.00
69842;BME280;57138;51.326;-0.068;2023-03-21T05:35:10;99228.06;;;7.45;100.00
69842;BME280;57138;51.326;-0.068;2023-03-21T05:37:36;99225.84;;;7.49;100.00
69842;BME280;57138;51.326;-0.068;2023-03-21T05:40:03;99214.78;;;7.45;100.00
69842;BME280;57138;51.326;-0.068;2023-03-21T05:42:30;99215.78;;;7.44;100.00
69842;BME280;57138;51.326;-0.068;2023-03-21T05:44:56;99217.25;;;7.47;100.00
69842;BME280;57138;51.326;-0.068;2023-03-21T05:47:21;99206.97;;;7.44;100.00
69842;BME280;57138;51.326;-0.068;2023-03-21T05:49:46;99202.88;;;7.41;100.00
69842;BME280;57138;51.326;-0.068;2023-03-21T05:52:12;99206.97;;;7.44;100.00
69842;BME280;57138;51.326;-0.068;2023-03-21T05:54:37;99215.78;;;7.44;100.00
69842;BME280;57138;51.326;-0.068;2023-03-21T05:57:04;99224.56;;;7.45;100.00
69842;BME280;57138;51.326;-0.068;2023-03-21T05:59:29;99232.13;;;7.41;100.00
69842;BME280;57138;51.326;-0.068;2023-03-21T06:01:55;99220.84;;;7.39;100.00
69842;BME280;57138;51.326;-0.068;2023-03-21T06:04:20;99219.81;;;7.40;100.00
69842;BME280;57138;51.326;-0.068;2023-03-21T06:06:46;99218.00;;;7.41;100.00
69842;BME280;57138;51.326;-0.068;2023-03-21T06:09:11;99204.91;;;7.39;100.00
69842;BME280;57138;51.326;-0.068;2023-03-21T06:11:40;99213.13;;;7.44;100.00
69842;BME280;57138;51.326;-0.068;2023-03-21T06:14:08;99215.16;;;7.42;100.00
69842;BME280;57138;51.326;-0.068;2023-03-21T06:16:33;99232.34;;;7.46;100.00
69842;BME280;57138;51.326;-0.068;2023-03-21T06:18:59;99219.63;;;7.42;100.00
69842;BME280;57138;51.326;-0.068;2023-03-21T06:21:24;99219.25;;;7.45;100.00
69842;BME280;57138;51.326;-0.068;2023-03-21T06:23:50;99226.22;;;7.46;100.00
69842;BME280;57138;51.326;-0.068;2023-03-21T06:26:16;99215.59;;;7.46;100.00
69842;BME280;57138;51.326;-0.068;2023-03-21T06:28:47;99219.25;;;7.45;100.00
69842;BME280;57138;51.326;-0.068;2023-03-21T06:31:12;99222.97;;;7.50;100.00
69842;BME280;57138;51.326;-0.068;2023-03-21T06:33:38;99219.06;;;7.46;100.00
69842;BME280;57138;51.326;-0.068;2023-03-21T06:36:03;99220.09;;;7.45;100.00
69842;BME280;57138;51.326;-0.068;2023-03-21T06:38:28;99229.06;;;7.44;100.00
69842;BME280;57138;51.326;-0.068;2023-03-21T06:40:54;99208.19;;;7.41;100.00
69842;BME280;57138;51.326;-0.068;2023-03-21T06:43:19;99219.63;;;7.42;100.00
69842;BME280;57138;51.326;-0.068;2023-03-21T06:45:45;99216.41;;;7.46;100.00
69842;BME280;57138;51.326;-0.068;2023-03-21T06:48:11;99212.72;;;7.47;100.00
69842;BME280;57138;51.326;-0.068;2023-03-21T06:50:36;99205.75;;;7.46;100.00
69842;BME280;57138;51.326;-0.068;2023-03-21T06:53:02;99207.41;;;7.47;100.00
69842;BME280;57138;51.326;-0.068;2023-03-21T06:55:27;99197.78;;;7.46;100.00
69842;BME280;57138;51.326;-0.068;2023-03-21T06:57:54;99197.97;;;7.45;100.00
69842;BME280;57138;51.326;-0.068;2023-03-21T07:00:21;99201.91;;;7.49;100.00
69842;BME280;57138;51.326;-0.068;2023-03-21T07:02:47;99186.72;;;7.43;100.00
69842;BME280;57138;51.326;-0.068;2023-03-21T07:05:12;99194.31;;;7.46;100.00
69842;BME280;57138;51.326;-0.068;2023-03-21T07:07:38;99189.41;;;7.49;100.00
69842;BME280;57138;51.326;-0.068;2023-03-21T07:10:04;99187.41;;;7.51;100.00
69842;BME280;57138;51.326;-0.068;2023-03-21T07:12:30;99187.41;;;7.51;100.00
69842;BME280;57138;51.326;-0.068;2023-03-21T07:15:03;99194.34;;;7.52;100.00
69842;BME280;57138;51.326;-0.068;2023-03-21T07:17:29;99198.88;;;7.59;100.00
69842;BME280;57138;51.326;-0.068;2023-03-21T07:19:54;99197.88;;;7.60;100.00
69842;BME280;57138;51.326;-0.068;2023-03-21T07:22:20;99196.88;;;7.61;100.00
69842;BME280;57138;51.326;-0.068;2023-03-21T07:24:45;99203.59;;;7.56;100.00
69842;BME280;57138;51.326;-0.068;2023-03-21T07:27:15;99205.88;;;7.60;100.00
69842;BME280;57138;51.326;-0.068;2023-03-21T07:29:40;99192.56;;;7.60;100.00
69842;BME280;57138;51.326;-0.068;2023-03-21T07:32:06;99196.22;;;7.59;100.00
69842;BME280;57138;51.326;-0.068;2023-03-21T07:34:32;99199.16;;;7.64;100.00
69842;BME280;57138;51.326;-0.068;2023-03-21T07:36:58;99214.72;;;7.67;100.00
69842;BME280;57138;51.326;-0.068;2023-03-21T07:39:25;99217.38;;;7.67;100.00
69842;BME280;57138;51.326;-0.068;2023-03-21T07:41:51;99209.59;;;7.65;100.00
69842;BME280;57138;51.326;-0.068;2023-03-21T07:44:20;99210.84;;;7.69;100.00
69842;BME280;57138;51.326;-0.068;2023-03-21T07:46:46;99217.81;;;7.70;100.00
69842;BME280;57138;51.326;-0.068;2023-03-21T07:49:11;99201.41;;;7.67;100.00
69842;BME280;57138;51.326;-0.068;2023-03-21T07:51:36;99202.66;;;7.71;100.00
69842;BME280;57138;51.326;-0.068;2023-03-21T07:54:02;99196.94;;;7.74;100.00
69842;BME280;57138;51.326;-0.068;2023-03-21T07:56:27;99192.84;;;7.71;100.00
69842;BME280;57138;51.326;-0.068;2023-03-21T07:58:53;99197.34;;;7.71;100.00
69842;BME280;57138;51.326;-0.068;2023-03-21T08:01:18;99193.63;;;7.65;100.00
69842;BME280;57138;51.326;-0.068;2023-03-21T08:03:46;99210.03;;;7.69;100.00
69842;BME280;57138;51.326;-0.068;2023-03-21T08:06:12;99212.69;;;7.69;100.00
69842;BME280;57138;51.326;-0.068;2023-03-21T08:08:38;99218.22;;;7.74;100.00
69842;BME280;57138;51.326;-0.068;2023-03-21T08:11:04;99215.38;;;7.76;100.00
69842;BME280;57138;51.326;-0.068;2023-03-21T08:13:30;99206.19;;;7.78;100.00
69842;BME280;57138;51.326;-0.068;2023-03-21T08:15:55;99200.91;;;7.85;100.00
69842;BME280;57138;51.326;-0.068;2023-03-21T08:18:21;99200.72;;;7.86;100.00
69842;BME280;57138;51.326;-0.068;2023-03-21T08:20:51;99199.13;;;7.92;100.00
69842;BME280;57138;51.326;-0.068;2023-03-21T08:23:16;99204.47;;;7.99;100.00
69842;BME280;57138;51.326;-0.068;2023-03-21T08:25:41;99205.06;;;8.01;100.00
69842;BME280;57138;51.326;-0.068;2023-03-21T08:28:07;99204.28;;;8.07;100.00
69842;BME280;57138;51.326;-0.068;2023-03-21T08:30:32;99201.63;;;8.07;100.00
69842;BME280;57138;51.326;-0.068;2023-03-21T08:32:59;99198.38;;;8.12;100.00
69842;BME280;57138;51.326;-0.068;2023-03-21T08:35:25;99208.69;;;8.21;100.00
69842;BME280;57138;51.326;-0.068;2023-03-21T08:37:51;99219.56;;;8.26;100.00
69842;BME280;57138;51.326;-0.068;2023-03-21T08:40:17;99209.13;;;8.32;100.00
69842;BME280;57138;51.326;-0.068;2023-03-21T08:42:43;99226.34;;;8.36;100.00
69842;BME280;57138;51.326;-0.068;2023-03-21T08:45:11;99221.25;;;8.41;100.00
69842;BME280;57138;51.326;-0.068;2023-03-21T08:47:38;99216.53;;;8.43;100.00
69842;BME280;57138;51.326;-0.068;2023-03-21T08:50:05;99222.53;;;8.45;100.00
69842;BME280;57138;51.326;-0.068;2023-03-21T08:52:31;99216.81;;;8.48;100.00
69842;BME280;57138;51.326;-0.068;2023-03-21T08:54:57;99217.03;;;8.53;100.00
69842;BME280;57138;51.326;-0.068;2023-03-21T08:57:22;99214.56;;;8.58;100.00
69842;BME280;57138;51.326;-0.068;2023-03-21T08:59:48;99203.91;;;8.58;100.00
69842;BME280;57138;51.326;-0.068;2023-03-21T09:02:15;99207.44;;;8.66;100.00
69842;BME280;57138;51.326;-0.068;2023-03-21T09:04:41;99200.88;;;8.68;100.00
69842;BME280;57138;51.326;-0.068;2023-03-21T09:07:08;99207.28;;;8.80;100.00
69842;BME280;57138;51.326;-0.068;2023-03-21T09:09:35;99193.34;;;8.85;100.00
69842;BME280;57138;51.326;-0.068;2023-03-21T09:12:02;99174.06;;;8.90;100.00
69842;BME280;57138;51.326;-0.068;2023-03-21T09:14:27;99173.66;;;8.99;100.00
69842;BME280;57138;51.326;-0.068;2023-03-21T09:16:52;99173.06;;;9.11;100.00
69842;BME280;57138;51.326;-0.068;2023-03-21T09:19:18;99178.81;;;9.21;100.00
69842;BME280;57138;51.326;-0.068;2023-03-21T09:21:44;99181.88;;;9.31;100.00
69842;BME280;57138;51.326;-0.068;2023-03-21T09:24:09;99175.50;;;9.39;100.00
69842;BME280;57138;51.326;-0.068;2023-03-21T09:26:37;99192.13;;;9.48;100.00
69842;BME280;57138;51.326;-0.068;2023-03-21T09:29:03;99206.06;;;9.57;100.00
69842;BME280;57138;51.326;-0.068;2023-03-21T09:31:30;99190.28;;;9.62;100.00
69842;BME280;57138;51.326;-0.068;2023-03-21T09:33:56;99193.34;;;9.65;100.00
69842;BME280;57138;51.326;-0.068;2023-03-21T09:36:22;99205.03;;;9.64;100.00
69842;BME280;57138;51.326;-0.068;2023-03-21T09:38:49;99193.34;;;9.65;100.00
69842;BME280;57138;51.326;-0.068;2023-03-21T09:46:38;99175.69;;;9.71;100.00
69842;BME280;57138;51.326;-0.068;2023-03-21T09:49:17;99183.06;;;9.76;100.00
69842;BME280;57138;51.326;-0.068;2023-03-21T09:51:48;99184.28;;;9.80;100.00
69842;BME280;57138;51.326;-0.068;2023-03-21T09:54:29;99170.75;;;9.75;100.00
69842;BME280;57138;51.326;-0.068;2023-03-21T09:57:03;99173.16;;;9.83;100.00
69842;BME280;57138;51.326;-0.068;2023-03-21T09:59:36;99165.78;;;9.85;100.00
69842;BME280;57138;51.326;-0.068;2023-03-21T10:02:25;99179.50;;;9.95;100.00
69842;BME280;57138;51.326;-0.068;2023-03-21T10:05:00;99194.50;;;9.96;100.00
69842;BME280;57138;51.326;-0.068;2023-03-21T10:07:29;99176.25;;;9.86;100.00
69842;BME280;57138;51.326;-0.068;2023-03-21T10:09:59;99184.66;;;9.90;100.00
69842;BME280;57138;51.326;-0.068;2023-03-21T10:12:28;99165.16;;;9.83;100.00
69842;BME280;57138;51.326;-0.068;2023-03-21T10:14:56;99176.06;;;9.88;100.00
69842;BME280;57138;51.326;-0.068;2023-03-21T10:17:30;99185.09;;;9.87;100.00
69842;BME280;57138;51.326;-0.068;2023-03-21T10:22:41;99186.75;;;9.88;100.00
69842;BME280;57138;51.326;-0.068;2023-03-21T10:25:12;99180.16;;;9.84;100.00
69842;BME280;57138;51.326;-0.068;2023-03-21T10:27:39;99172.75;;;9.86;100.00
69842;BME280;57138;51.326;-0.068;2023-03-21T10:30:05;99174.63;;;9.85;100.00
69842;BME280;57138;51.326;-0.068;2023-03-21T10:32:33;99168.66;;;9.90;100.00
69842;BME280;57138;51.326;-0.068;2023-03-21T10:35:00;99162.25;;;9.98;100.00
69842;BME280;57138;51.326;-0.068;2023-03-21T10:37:28;99168.81;;;10.08;100.00
69842;BME280;57138;51.326;-0.068;2023-03-21T10:39:54;99158.28;;;10.14;100.00
69842;BME280;57138;51.326;-0.068;2023-03-21T10:42:24;99160.72;;;10.22;100.00
69842;BME280;57138;51.326;-0.068;2023-03-21T10:44:55;99165.41;;;10.26;100.00
69842;BME280;57138;51.326;-0.068;2023-03-21T10:47:27;99164.41;;;10.28;100.00
69842;BME280;57138;51.326;-0.068;2023-03-21T10:49:54;99158.63;;;10.31;100.00
69842;BME280;57138;51.326;-0.068;2023-03-21T10:52:22;99169.53;;;10.29;100.00
69842;BME280;57138;51.326;-0.068;2023-03-21T10:55:17;99165.22;;;10.28;100.00
69842;BME280;57138;51.326;-0.068;2023-03-21T10:57:46;99164.81;;;10.24;100.00
69842;BME280;57138;51.326;-0.068;2023-03-21T11:00:23;99160.72;;;10.22;100.00
69842;BME280;57138;51.326;-0.068;2023-03-21T11:02:50;99152.53;;;10.17;100.00
69842;BME280;57138;51.326;-0.068;2023-03-21T11:05:19;99154.19;;;10.18;100.00
69842;BME280;57138;51.326;-0.068;2023-03-21T11:07:46;99144.94;;;10.14;100.00
69842;BME280;57138;51.326;-0.068;2023-03-21T11:10:15;99150.66;;;10.17;100.00
69842;BME280;57138;51.326;-0.068;2023-03-21T11:12:54;99147.56;;;10.27;100.00
69842;BME280;57138;51.326;-0.068;2023-03-21T11:15:29;99141.41;;;10.33;100.00
69842;BME280;57138;51.326;-0.068;2023-03-21T11:17:58;99135.63;;;10.36;97.21
69842;BME280;57138;51.326;-0.068;2023-03-21T11:20:30;99125.28;;;10.47;97.14
69842;BME280;57138;51.326;-0.068;2023-03-21T11:22:56;99118.47;;;10.51;96.94
69842;BME280;57138;51.326;-0.068;2023-03-21T11:25:36;99118.63;;;10.56;97.37
69842;BME280;57138;51.326;-0.068;2023-03-21T11:28:15;99114.09;;;10.63;96.38
69842;BME280;57138;51.326;-0.068;2023-03-21T11:30:52;99116.44;;;10.78;97.65
69842;BME280;57138;51.326;-0.068;2023-03-21T11:33:20;99117.59;;;10.89;95.45
69842;BME280;57138;51.326;-0.068;2023-03-21T11:36:04;99127.41;;;10.95;92.91
69842;BME280;57138;51.326;-0.068;2023-03-21T11:38:35;99122.91;;;10.95;94.54
69842;BME280;57138;51.326;-0.068;2023-03-21T11:41:02;99124.66;;;11.08;95.26
69842;BME280;57138;51.326;-0.068;2023-03-21T11:43:29;99115.56;;;11.09;93.49
69842;BME280;57138;51.326;-0.068;2023-03-21T11:48:45;99114.66;;;10.97;93.44
69842;BME280;57138;51.326;-0.068;2023-03-21T11:51:25;99107.88;;;10.94;91.89
69842;BME280;57138;51.326;-0.068;2023-03-21T11:54:02;99115.09;;;10.94;93.56
69842;BME280;57138;51.326;-0.068;2023-03-21T11:56:33;99123.28;;;10.99;94.38
69842;BME280;57138;51.326;-0.068;2023-03-21T11:59:17;99119.56;;;11.00;92.75
69842;BME280;57138;51.326;-0.068;2023-03-21T12:01:57;99128.25;;;10.95;93.73
69842;BME280;57138;51.326;-0.068;2023-03-21T12:07:41;99135.06;;;10.91;93.54
69842;BME280;57138;51.326;-0.068;2023-03-21T12:10:30;99138.59;;;10.85;93.80
69842;BME280;57138;51.326;-0.068;2023-03-21T12:15:49;99135.13;;;10.85;94.40
69842;BME280;57138;51.326;-0.068;2023-03-21T12:21:42;99128.47;;;10.94;93.86
69842;BME280;57138;51.326;-0.068;2023-03-21T12:24:37;99130.72;;;10.97;93.42
69842;BME280;57138;51.326;-0.068;2023-03-21T12:35:51;99117.50;;;11.02;93.71
69842;BME280;57138;51.326;-0.068;2023-03-21T12:38:26;99114.38;;;11.05;92.39
69842;BME280;57138;51.326;-0.068;2023-03-21T12:41:15;99112.50;;;11.06;93.05
69842;BME280;57138;51.326;-0.068;2023-03-21T12:43:49;99109.63;;;11.07;92.71
69842;BME280;57138;51.326;-0.068;2023-03-21T12:49:09;99104.28;;;11.07;91.46
69842;BME280;57138;51.326;-0.068;2023-03-21T12:51:42;99105.09;;;11.08;91.55
69842;BME280;57138;51.326;-0.068;2023-03-21T12:54:23;99100.56;;;11.08;90.75
69842;BME280;57138;51.326;-0.068;2023-03-21T12:57:19;99106.06;;;11.13;89.38
69842;BME280;57138;51.326;-0.068;2023-03-21T13:00:26;99105.03;;;11.14;89.79
69842;BME280;57138;51.326;-0.068;2023-03-21T13:03:18;99098.03;;;11.13;89.66
69842;BME280;57138;51.326;-0.068;2023-03-21T13:05:54;99098.47;;;11.10;90.18
69842;BME280;57138;51.326;-0.068;2023-03-21T13:08:45;99109.56;;;11.14;90.38
69842;BME280;57138;51.326;-0.068;2023-03-21T13:11:14;99091.44;;;11.16;89.75
69842;BME280;57138;51.326;-0.068;2023-03-21T13:14:05;99095.53;;;11.19;90.41
69842;BME280;57138;51.326;-0.068;2023-03-21T13:26:57;99088.28;;;11.44;88.85
69842;BME280;57138;51.326;-0.068;2023-03-21T13:29:31;99077.59;;;11.44;88.48
69842;BME280;57138;51.326;-0.068;2023-03-21T13:32:06;99091.72;;;11.51;87.32
69842;BME280;57138;51.326;-0.068;2023-03-21T13:34:32;99086.16;;;11.53;87.37
69842;BME280;57138;51.326;-0.068;2023-03-21T13:37:00;99090.66;;;11.52;86.98
69842;BME280;57138;51.326;-0.068;2023-03-21T13:39:27;99089.03;;;11.51;85.55
69842;BME280;57138;51.326;-0.068;2023-03-21T13:41:54;99074.47;;;11.47;85.56
69842;BME280;57138;51.326;-0.068;2023-03-21T13:44:24;99084.13;;;11.48;85.40
69842;BME280;57138;51.326;-0.068;2023-03-21T13:47:03;99085.31;;;11.52;84.81
69842;BME280;57138;51.326;-0.068;2023-03-21T13:49:33;99084.88;;;11.56;84.60
69842;BME280;57138;51.326;-0.068;2023-03-21T13:52:45;99079.44;;;11.62;85.82
69842;BME280;57138;51.326;-0.068;2023-03-21T13:54:53;99078.31;;;11.70;85.63
69842;BME280;57138;51.326;-0.068;2023-03-21T14:00:19;99073.25;;;11.80;84.23
69842;BME280;57138;51.326;-0.068;2023-03-21T14:03:08;99075.50;;;11.83;84.50
69842;BME280;57138;51.326;-0.068;2023-03-21T14:05:37;99065.59;;;11.84;84.10
69842;BME280;57138;51.326;-0.068;2023-03-21T14:08:09;99054.81;;;11.91;82.23
69842;BME280;57138;51.326;-0.068;2023-03-21T14:10:51;99054.81;;;11.91;81.92
69842;BME280;57138;51.326;-0.068;2023-03-21T14:13:21;99073.25;;;11.99;82.39
69842;BME280;57138;51.326;-0.068;2023-03-21T14:15:55;99070.00;;;11.97;81.39
69842;BME280;57138;51.326;-0.068;2023-03-21T14:18:26;99055.31;;;11.99;81.34
69842;BME280;57138;51.326;-0.068;2023-03-21T14:20:57;99046.94;;;11.96;79.61
69842;BME280;57138;51.326;-0.068;2023-03-21T14:23:23;99066.66;;;12.01;79.75
69842;BME280;57138;51.326;-0.068;2023-03-21T14:25:50;99068.28;;;12.02;80.21